Time;durP1;ratioP1;P1;durP2;ratioP2;P2;SDS_P1;SDS_P2;PMS_P1;PMS_P2;Temp;Humidity;BMP_temperature;BMP_pressure;BME280_temperature;BME280_humidity;BME280_pressure;Samples;Min_cycle;Max_cycle;Signal;HPM_P1;HPM_P2
2021/08/03 00:01:06;;;;;;;1.67;1.00;;;21.60;52.80;;;;;;4980698;28;20183;-80
2021/08/03 00:03:51;;;;;;;1.30;1.20;;;21.60;52.80;;;;;;4996736;28;20178;-80
2021/08/03 00:06:20;;;;;;;1.08;1.00;;;21.60;52.80;;;;;;5031425;28;20154;-78
2021/08/03 00:08:48;;;;;;;0.77;0.77;;;21.50;52.70;;;;;;5064482;28;20237;-78
2021/08/03 00:11:15;;;;;;;1.20;1.10;;;21.60;52.80;;;;;;5031060;28;20673;-79
2021/08/03 00:13:40;;;;;;;0.98;0.98;;;21.60;52.80;;;;;;5014089;28;20254;-81
2021/08/03 00:16:08;;;;;;;1.13;1.00;;;21.60;52.80;;;;;;5030933;28;20193;-80
2021/08/03 00:18:37;;;;;;;1.23;1.08;;;21.60;52.80;;;;;;5013769;28;20224;-78
2021/08/03 00:21:05;;;;;;;1.00;1.00;;;21.60;52.80;;;;;;4996616;28;20310;-80
2021/08/03 00:23:32;;;;;;;1.08;1.02;;;21.60;52.80;;;;;;5081566;28;20187;-79
2021/08/03 00:25:59;;;;;;;1.17;1.08;;;21.60;52.80;;;;;;4980475;28;20653;-79
2021/08/03 00:28:27;;;;;;;1.30;1.20;;;21.60;52.80;;;;;;5064393;28;20227;-79
2021/08/03 00:30:54;;;;;;;1.23;0.95;;;21.60;52.80;;;;;;5064395;28;20214;-79
2021/08/03 00:33:21;;;;;;;1.17;1.08;;;21.60;52.80;;;;;;5031095;28;20174;-81
2021/08/03 00:35:49;;;;;;;1.00;1.00;;;21.60;52.80;;;;;;5047839;28;20179;-78
2021/08/03 00:38:14;;;;;;;1.10;1.00;;;21.60;52.80;;;;;;5013172;28;20610;-78
2021/08/03 00:40:44;;;;;;;1.23;1.13;;;21.60;52.80;;;;;;5013241;28;20194;-80
2021/08/03 00:43:09;;;;;;;1.05;1.00;;;21.50;52.80;;;;;;5013195;28;20159;-80
2021/08/03 00:45:35;;;;;;;0.90;0.90;;;21.60;52.90;;;;;;5013350;28;20260;-78
2021/08/03 00:48:03;;;;;;;1.10;1.00;;;21.60;52.80;;;;;;5030719;28;20155;-79
2021/08/03 00:50:29;;;;;;;1.10;1.00;;;21.60;52.80;;;;;;5031083;28;20155;-78
2021/08/03 00:52:56;;;;;;;1.25;1.15;;;21.60;52.80;;;;;;5016431;28;20173;-78
2021/08/03 00:55:21;;;;;;;1.10;1.00;;;21.60;52.80;;;;;;5016430;28;20163;-78
2021/08/03 00:57:48;;;;;;;1.38;1.27;;;21.60;52.80;;;;;;5016490;28;20173;-77
2021/08/03 01:00:14;;;;;;;1.10;0.90;;;21.60;52.80;;;;;;5016563;28;20277;-79
2021/08/03 01:02:39;;;;;;;0.88;0.88;;;21.60;52.70;;;;;;5016358;28;20706;-80
2021/08/03 01:05:09;;;;;;;1.20;1.10;;;21.60;52.80;;;;;;5034160;28;20158;-80
2021/08/03 01:07:47;;;;;;;1.10;1.00;;;21.60;52.80;;;;;;4998925;28;20226;-79
2021/08/03 01:10:25;;;;;;;0.95;0.95;;;21.60;52.80;;;;;;5033999;28;20158;-77
2021/08/03 01:12:56;;;;;;;1.20;1.10;;;21.60;52.80;;;;;;5000662;28;20178;-79
2021/08/03 01:15:28;;;;;;;0.90;0.90;;;21.60;52.80;;;;;;5034304;28;20163;-77
2021/08/03 01:18:16;;;;;;;1.10;1.00;;;21.60;52.80;;;;;;4999670;28;20269;-81
2021/08/03 01:21:21;;;;;;;0.98;0.90;;;21.60;52.80;;;;;;5033758;28;20530;-77
2021/08/03 01:24:21;;;;;;;1.35;1.20;;;21.60;52.80;;;;;;5033500;28;20209;-80
2021/08/03 01:27:21;;;;;;;1.58;1.00;;;21.60;52.80;;;;;;5033774;28;20214;-78
2021/08/03 01:29:48;;;;;;;1.10;1.00;;;21.60;52.80;;;;;;5033576;28;20163;-79
2021/08/03 01:32:17;;;;;;;1.23;1.13;;;21.60;52.80;;;;;;5033596;28;20151;-81
2021/08/03 01:34:45;;;;;;;0.90;0.90;;;21.60;52.80;;;;;;5033567;28;20175;-81
2021/08/03 01:37:14;;;;;;;1.30;1.20;;;21.60;52.80;;;;;;5016040;28;20151;-79
2021/08/03 01:39:43;;;;;;;1.30;0.80;;;21.60;52.80;;;;;;5033402;28;20579;-77
2021/08/03 01:42:09;;;;;;;1.00;0.90;;;21.60;52.80;;;;;;5033807;28;20219;-79
2021/08/03 01:44:35;;;;;;;0.85;0.85;;;21.60;52.80;;;;;;5033352;28;20238;-79
2021/08/03 01:47:02;;;;;;;0.75;0.75;;;21.60;52.80;;;;;;5015953;28;20677;-80
2021/08/03 01:49:28;;;;;;;1.00;1.00;;;21.60;52.80;;;;;;4999428;28;20175;-79
2021/08/03 01:51:53;;;;;;;1.13;1.02;;;21.60;52.80;;;;;;4999370;28;20189;-80
2021/08/03 01:54:20;;;;;;;1.25;1.10;;;21.60;52.80;;;;;;5033352;28;20166;-79
2021/08/03 01:56:46;;;;;;;1.30;1.20;;;21.60;52.80;;;;;;5067263;28;20218;-80
2021/08/03 01:59:12;;;;;;;1.10;1.00;;;21.60;52.80;;;;;;5015428;28;20213;-79
2021/08/03 02:01:40;;;;;;;1.13;1.02;;;21.60;52.80;;;;;;5015125;28;20200;-80
2021/08/03 02:04:05;;;;;;;1.30;1.20;;;21.60;52.80;;;;;;5033176;28;20171;-80
2021/08/03 02:06:31;;;;;;;1.10;1.05;;;21.60;52.80;;;;;;5015444;28;20151;-80
2021/08/03 02:08:57;;;;;;;1.30;0.90;;;21.60;52.80;;;;;;5032674;28;20215;-78
2021/08/03 02:11:29;;;;;;;1.05;1.00;;;21.60;52.80;;;;;;5015545;28;20186;-81
2021/08/03 02:13:55;;;;;;;0.88;0.88;;;21.60;52.80;;;;;;5015702;28;20171;-80
2021/08/03 02:16:21;;;;;;;1.00;0.95;;;21.60;52.80;;;;;;5015604;28;20151;-79
2021/08/03 02:18:47;;;;;;;1.27;1.17;;;21.60;52.70;;;;;;5032787;28;20558;-77
2021/08/03 02:21:17;;;;;;;0.75;0.75;;;21.60;52.70;;;;;;5033159;28;20194;-78
2021/08/03 02:23:42;;;;;;;0.90;0.90;;;21.60;52.80;;;;;;5015198;28;20164;-81
2021/08/03 02:26:10;;;;;;;1.00;1.00;;;21.60;52.80;;;;;;5032981;28;20170;-80
2021/08/03 02:28:36;;;;;;;0.85;0.85;;;21.60;52.80;;;;;;5033249;28;20166;-77
2021/08/03 02:31:07;;;;;;;1.10;1.00;;;21.60;52.80;;;;;;5015157;28;20215;-77
2021/08/03 02:33:36;;;;;;;1.02;1.00;;;21.60;52.80;;;;;;5032696;28;20568;-79
2021/08/03 02:36:03;;;;;;;0.98;0.93;;;21.60;52.80;;;;;;5032818;28;20162;-79
2021/08/03 02:38:29;;;;;;;1.60;1.10;;;21.60;52.80;;;;;;5032614;28;20601;-79
2021/08/03 02:40:55;;;;;;;1.17;1.08;;;21.60;52.80;;;;;;5033099;28;20166;-80
2021/08/03 02:43:22;;;;;;;0.90;0.90;;;21.60;52.80;;;;;;5032667;28;20522;-79
2021/08/03 02:45:48;;;;;;;0.93;0.90;;;21.60;52.80;;;;;;5014844;28;20155;-81
2021/08/03 02:48:15;;;;;;;0.90;0.90;;;21.60;52.80;;;;;;5014775;28;20200;-81
2021/08/03 02:50:43;;;;;;;1.15;1.00;;;21.60;52.80;;;;;;5014965;28;20203;-81
2021/08/03 02:53:28;;;;;;;0.80;0.80;;;21.60;52.80;;;;;;5032311;28;20247;-78
2021/08/03 02:55:58;;;;;;;1.00;1.00;;;21.60;52.90;;;;;;5032352;28;20182;-78
2021/08/03 02:58:32;;;;;;;0.90;0.90;;;21.60;52.90;;;;;;5032178;28;20155;-80
2021/08/03 03:01:02;;;;;;;0.95;0.95;;;21.60;52.90;;;;;;4999213;28;20380;-79
2021/08/03 03:03:29;;;;;;;0.88;0.88;;;21.60;52.80;;;;;;5082882;28;20187;-78
2021/08/03 03:05:59;;;;;;;0.80;0.80;;;21.60;52.90;;;;;;5049194;28;20183;-81
2021/08/03 03:08:27;;;;;;;0.90;0.90;;;21.60;52.80;;;;;;4997635;28;20635;-79
2021/08/03 03:10:55;;;;;;;0.90;0.90;;;21.60;52.80;;;;;;5032314;28;20545;-78
2021/08/03 03:13:26;;;;;;;1.13;1.02;;;21.60;52.80;;;;;;4980721;28;20187;-79
2021/08/03 03:15:53;;;;;;;1.00;1.00;;;21.60;53.50;;;;;;4997458;28;20178;-79
2021/08/03 03:18:20;;;;;;;0.93;0.90;;;21.60;52.90;;;;;;5049560;28;20182;-81
2021/08/03 03:20:47;;;;;;;0.90;0.90;;;21.60;52.90;;;;;;5032359;28;20217;-78
2021/08/03 03:23:14;;;;;;;0.82;0.82;;;21.60;52.90;;;;;;5014617;28;20692;-79
2021/08/03 03:25:40;;;;;;;1.00;0.90;;;21.60;52.80;;;;;;5032281;28;20242;-81
2021/08/03 03:28:10;;;;;;;0.90;0.90;;;21.70;52.90;;;;;;5032449;28;20155;-79
2021/08/03 03:30:36;;;;;;;1.17;1.10;;;21.60;52.80;;;;;;5066286;28;20195;-78
2021/08/03 03:33:04;;;;;;;1.10;1.00;;;21.60;52.80;;;;;;5032862;28;20167;-79
2021/08/03 03:35:31;;;;;;;1.10;1.00;;;21.60;52.80;;;;;;5032732;28;20209;-81
2021/08/03 03:37:57;;;;;;;1.23;1.05;;;21.60;52.90;;;;;;5014920;28;20163;-78
2021/08/03 03:40:23;;;;;;;1.00;1.00;;;21.60;52.90;;;;;;5014867;28;20278;-81
2021/08/03 03:42:50;;;;;;;0.88;0.88;;;21.60;52.90;;;;;;5015079;28;20171;-78
2021/08/03 03:45:16;;;;;;;1.00;1.00;;;21.60;52.90;;;;;;5015107;28;20183;-79
2021/08/03 03:48:00;;;;;;;0.95;0.95;;;21.60;52.80;;;;;;5015030;28;20159;-81
2021/08/03 03:50:31;;;;;;;1.00;0.90;;;21.60;52.80;;;;;;5000962;28;20187;-81
2021/08/03 03:53:08;;;;;;;0.80;0.80;;;21.60;52.90;;;;;;4997839;28;20234;-79
2021/08/03 03:55:35;;;;;;;1.00;1.00;;;21.60;52.90;;;;;;4999847;28;20246;-81
2021/08/03 03:58:02;;;;;;;0.93;0.93;;;21.60;52.90;;;;;;5014525;28;20147;-81
2021/08/03 04:00:29;;;;;;;1.05;0.95;;;21.60;52.90;;;;;;5032136;28;20186;-79
2021/08/03 04:02:59;;;;;;;0.90;0.90;;;21.60;52.90;;;;;;5031732;28;20157;-79
2021/08/03 04:05:28;;;;;;;1.10;1.00;;;21.60;52.90;;;;;;5065024;28;20641;-80
2021/08/03 04:07:54;;;;;;;1.10;1.00;;;21.60;52.90;;;;;;4977515;28;20282;-80
2021/08/03 04:10:31;;;;;;;0.93;0.85;;;21.60;52.80;;;;;;5011838;28;20631;-79
2021/08/03 04:12:59;;;;;;;1.42;0.90;;;21.60;52.90;;;;;;5061117;28;20209;-78
2021/08/03 04:15:25;;;;;;;1.17;1.00;;;21.60;52.80;;;;;;5078585;28;20722;-80
2021/08/03 04:17:52;;;;;;;0.90;0.90;;;21.60;52.70;;;;;;5011595;28;20176;-81
2021/08/03 04:20:18;;;;;;;1.00;0.93;;;21.60;52.70;;;;;;5011136;28;20558;-81
2021/08/03 04:22:44;;;;;;;1.05;0.95;;;21.60;52.70;;;;;;5012524;28;20220;-78
2021/08/03 04:25:14;;;;;;;1.00;0.90;;;21.60;52.50;;;;;;5012575;28;20603;-79
2021/08/03 04:27:45;;;;;;;0.90;0.90;;;21.60;52.60;;;;;;5080093;28;20183;-79
2021/08/03 04:30:13;;;;;;;0.80;0.80;;;21.50;52.60;;;;;;5063020;28;20187;-79
2021/08/03 04:32:40;;;;;;;0.80;0.80;;;21.50;52.70;;;;;;5012309;28;20513;-80
2021/08/03 04:35:06;;;;;;;0.90;0.90;;;21.40;52.70;;;;;;5012500;28;20156;-79
2021/08/03 04:37:40;;;;;;;0.70;0.70;;;21.40;52.70;;;;;;5011164;28;20156;-78
2021/08/03 04:40:07;;;;;;;0.90;0.90;;;21.40;52.90;;;;;;5027791;28;20554;-78
2021/08/03 04:42:37;;;;;;;1.20;1.10;;;21.40;52.90;;;;;;5027508;28;20168;-81
2021/08/03 04:45:04;;;;;;;0.80;0.80;;;21.40;53.00;;;;;;5062481;28;20595;-80
2021/08/03 04:47:30;;;;;;;1.00;1.00;;;21.40;53.00;;;;;;5012602;28;20168;-82
2021/08/03 04:49:56;;;;;;;0.60;0.60;;;21.40;52.90;;;;;;5010766;28;20171;-82
2021/08/03 04:52:22;;;;;;;1.00;0.90;;;21.50;52.70;;;;;;5010498;28;20526;-78
2021/08/03 04:54:48;;;;;;;0.63;0.60;;;21.60;52.70;;;;;;5012369;28;20221;-78
2021/08/03 04:57:14;;;;;;;0.90;0.90;;;21.60;52.60;;;;;;5011300;28;20538;-80
2021/08/03 04:59:40;;;;;;;0.73;0.73;;;21.60;52.60;;;;;;5012085;28;20279;-81
2021/08/03 05:02:06;;;;;;;0.85;0.68;;;21.70;52.40;;;;;;5010581;28;20203;-79
2021/08/03 05:04:34;;;;;;;0.80;0.80;;;21.70;52.40;;;;;;5010636;28;20606;-78
2021/08/03 05:07:04;;;;;;;0.80;0.80;;;21.70;52.30;;;;;;5010513;28;20254;-78
2021/08/03 05:09:31;;;;;;;0.68;0.68;;;21.80;52.10;;;;;;5078288;28;20701;-82
2021/08/03 05:11:57;;;;;;;1.00;0.95;;;21.80;52.00;;;;;;5011152;28;20164;-82
2021/08/03 05:14:27;;;;;;;0.95;0.85;;;21.80;52.00;;;;;;5010282;28;20155;-77
2021/08/03 05:16:53;;;;;;;0.85;0.85;;;21.80;52.10;;;;;;5078140;28;20194;-80
2021/08/03 05:19:24;;;;;;;0.90;0.90;;;21.80;52.10;;;;;;5011490;28;20219;-79
2021/08/03 05:21:50;;;;;;;0.90;0.90;;;21.90;52.10;;;;;;5078074;28;20710;-80
2021/08/03 05:24:16;;;;;;;0.80;0.80;;;21.80;52.10;;;;;;5011475;28;20231;-81
2021/08/03 05:26:43;;;;;;;0.85;0.85;;;21.80;52.10;;;;;;5011346;28;20167;-79
2021/08/03 05:29:09;;;;;;;0.95;0.85;;;21.80;52.20;;;;;;5011739;28;20160;-78
2021/08/03 05:31:36;;;;;;;1.10;1.00;;;21.80;52.10;;;;;;5011812;28;20171;-79
2021/08/03 05:34:05;;;;;;;0.80;0.80;;;21.80;52.20;;;;;;5011376;28;20582;-79
2021/08/03 05:36:31;;;;;;;0.88;0.88;;;21.80;52.10;;;;;;5084414;28;20498;-81
2021/08/03 05:38:57;;;;;;;0.70;0.70;;;21.80;52.10;;;;;;5036319;28;20262;-82
2021/08/03 05:41:23;;;;;;;0.80;0.80;;;21.90;52.00;;;;;;5037369;28;20194;-79
2021/08/03 05:43:54;;;;;;;0.77;0.77;;;21.90;52.00;;;;;;5087733;28;20203;-80
2021/08/03 05:46:21;;;;;;;1.20;1.00;;;21.90;51.80;;;;;;5087043;28;20275;-77
2021/08/03 05:48:51;;;;;;;0.90;0.90;;;21.90;51.80;;;;;;5036538;28;20194;-79
2021/08/03 05:51:19;;;;;;;0.77;0.77;;;21.90;52.00;;;;;;5001635;28;20191;-78
2021/08/03 05:53:48;;;;;;;1.13;0.98;;;21.90;51.90;;;;;;5086445;28;20191;-79
2021/08/03 05:56:17;;;;;;;0.95;0.93;;;21.90;51.70;;;;;;5087084;28;20217;-82
2021/08/03 05:58:45;;;;;;;0.75;0.75;;;22.00;51.80;;;;;;5070060;28;20713;-81
2021/08/03 06:01:14;;;;;;;0.65;0.65;;;22.00;51.80;;;;;;5087367;28;20653;-82
2021/08/03 06:03:42;;;;;;;0.93;0.93;;;22.00;51.60;;;;;;5087943;28;20193;-81
2021/08/03 06:06:08;;;;;;;0.80;0.80;;;22.00;51.60;;;;;;5070845;28;20182;-79
2021/08/03 06:08:34;;;;;;;0.60;0.60;;;22.00;51.50;;;;;;5035323;28;20716;-79
2021/08/03 06:11:03;;;;;;;0.75;0.70;;;22.10;51.50;;;;;;5034985;28;20163;-81
2021/08/03 06:13:35;;;;;;;0.98;0.90;;;22.10;51.40;;;;;;5087275;28;20240;-81
2021/08/03 06:16:03;;;;;;;0.60;0.60;;;22.10;51.40;;;;;;5069520;28;20514;-81
2021/08/03 06:18:37;;;;;;;1.00;0.80;;;22.10;51.40;;;;;;5071451;28;20195;-78
2021/08/03 06:21:07;;;;;;;0.65;0.65;;;22.10;51.60;;;;;;5068898;28;20240;-78
2021/08/03 06:23:37;;;;;;;0.90;0.90;;;22.10;51.40;;;;;;5104307;28;20183;-79
2021/08/03 06:26:05;;;;;;;0.95;0.88;;;22.10;51.30;;;;;;5087318;28;20187;-79
2021/08/03 06:28:33;;;;;;;0.70;0.70;;;22.10;51.40;;;;;;5070411;28;20187;-80
2021/08/03 06:31:01;;;;;;;0.77;0.77;;;22.10;51.30;;;;;;5087604;28;20251;-81
2021/08/03 06:33:28;;;;;;;0.70;0.70;;;22.20;51.40;;;;;;5003147;28;20583;-87
2021/08/03 06:35:56;;;;;;;0.90;0.70;;;22.20;51.20;;;;;;5085755;28;20174;-84
2021/08/03 06:38:26;;;;;;;0.70;0.70;;;22.20;51.20;;;;;;5068897;28;20187;-83
2021/08/03 06:41:12;;;;;;;0.80;0.80;;;22.20;51.20;;;;;;5085452;28;20753;-85
2021/08/03 06:43:51;;;;;;;1.00;0.98;;;22.20;51.20;;;;;;5035140;28;20248;-83
2021/08/03 06:46:16;;;;;;;0.73;0.57;;;22.10;51.20;;;;;;5084688;28;20186;-79
2021/08/03 06:48:56;;;;;;;0.60;0.60;;;22.20;51.20;;;;;;5037291;28;20204;-82
2021/08/03 06:51:23;;;;;;;0.90;0.90;;;22.30;51.00;;;;;;5083361;28;20190;-82
2021/08/03 06:53:54;;;;;;;0.80;0.80;;;22.30;51.00;;;;;;5054233;28;20306;-82
2021/08/03 06:56:22;;;;;;;1.00;1.00;;;22.30;51.00;;;;;;5067889;28;20552;-78
2021/08/03 06:58:57;;;;;;;0.82;0.80;;;22.30;51.10;;;;;;4988775;28;20538;-79
2021/08/03 07:01:35;;;;;;;0.90;0.90;;;22.30;51.00;;;;;;5077120;28;20664;-78
2021/08/03 07:04:03;;;;;;;0.88;0.88;;;22.30;50.90;;;;;;5092200;28;20668;-77
2021/08/03 07:06:32;;;;;;;0.93;0.93;;;22.30;51.00;;;;;;5009921;28;20214;-78
2021/08/03 07:09:03;;;;;;;0.77;0.70;;;22.30;50.90;;;;;;5077117;28;20226;-78
2021/08/03 07:11:34;;;;;;;0.80;0.80;;;22.30;50.80;;;;;;5092793;28;20194;-78
2021/08/03 07:14:04;;;;;;;0.63;0.63;;;22.30;50.80;;;;;;5078517;28;20193;-78
2021/08/03 07:16:34;;;;;;;0.70;0.70;;;22.30;50.80;;;;;;5061502;28;20206;-77
2021/08/03 07:19:04;;;;;;;0.73;0.73;;;22.30;50.80;;;;;;5009266;28;20213;-78
2021/08/03 07:21:33;;;;;;;0.70;0.70;;;22.30;50.80;;;;;;5060967;28;20606;-77
2021/08/03 07:24:02;;;;;;;1.58;0.75;;;22.40;50.80;;;;;;5061890;28;20205;-78
2021/08/03 07:26:35;;;;;;;0.70;0.70;;;22.30;50.80;;;;;;5043426;28;20162;-77
2021/08/03 07:29:05;;;;;;;0.70;0.70;;;22.30;50.90;;;;;;5078182;28;20190;-77
2021/08/03 07:31:31;;;;;;;0.70;0.70;;;22.30;50.80;;;;;;5078570;28;20182;-77
2021/08/03 07:34:01;;;;;;;0.70;0.70;;;22.30;50.80;;;;;;5010057;28;20169;-77
2021/08/03 07:36:33;;;;;;;0.90;0.90;;;22.40;50.80;;;;;;5061331;28;20179;-78
2021/08/03 07:39:04;;;;;;;0.70;0.70;;;22.30;50.90;;;;;;5060269;28;20282;-78
2021/08/03 07:41:34;;;;;;;0.60;0.60;;;22.30;50.90;;;;;;5077135;28;20187;-77
2021/08/03 07:44:04;;;;;;;0.70;0.70;;;22.30;51.00;;;;;;5076529;28;20541;-78
2021/08/03 07:46:40;;;;;;;0.85;0.85;;;22.30;50.80;;;;;;5026341;28;20234;-77
2021/08/03 07:49:09;;;;;;;0.95;0.70;;;22.40;50.60;;;;;;5077440;28;20312;-77
2021/08/03 07:51:39;;;;;;;0.70;0.63;;;22.40;50.60;;;;;;5008982;28;20238;-78
2021/08/03 07:54:08;;;;;;;0.75;0.75;;;22.40;50.50;;;;;;5008540;28;20214;-77
2021/08/03 07:56:38;;;;;;;0.70;0.70;;;22.40;50.60;;;;;;5060250;28;20259;-77
2021/08/03 07:59:06;;;;;;;0.60;0.60;;;22.30;50.80;;;;;;5077122;28;20209;-76
2021/08/03 08:01:33;;;;;;;0.80;0.70;;;22.40;50.90;;;;;;5093420;28;20189;-77
2021/08/03 08:04:04;;;;;;;0.88;0.88;;;22.40;50.50;;;;;;5025267;28;20167;-79
2021/08/03 08:06:32;;;;;;;0.70;0.70;;;22.40;50.50;;;;;;5077176;28;20182;-77
2021/08/03 08:09:01;;;;;;;0.80;0.80;;;22.40;50.50;;;;;;5056830;28;20286;-77
2021/08/03 08:11:31;;;;;;;0.85;0.85;;;22.40;50.30;;;;;;5091056;28;20220;-77
2021/08/03 08:13:59;;;;;;;0.70;0.70;;;22.40;50.60;;;;;;5056835;28;20180;-77
2021/08/03 08:16:28;;;;;;;0.82;0.80;;;22.40;50.80;;;;;;5005204;28;20183;-76
2021/08/03 08:18:59;;;;;;;0.70;0.70;;;22.40;50.20;;;;;;5090458;28;20586;-77
2021/08/03 08:21:33;;;;;;;0.70;0.70;;;22.50;50.20;;;;;;5091235;28;20206;-76
2021/08/03 08:24:02;;;;;;;0.60;0.60;;;22.40;50.40;;;;;;5072426;28;20206;-77
2021/08/03 08:26:31;;;;;;;0.60;0.60;;;22.50;50.30;;;;;;5073775;28;20183;-77
2021/08/03 08:28:59;;;;;;;0.80;0.80;;;22.50;49.90;;;;;;5089467;28;20187;-77
2021/08/03 08:31:28;;;;;;;0.60;0.60;;;22.50;50.30;;;;;;5089848;28;20218;-77
2021/08/03 08:33:56;;;;;;;0.80;0.80;;;22.40;50.40;;;;;;5055854;28;20189;-77
2021/08/03 08:36:24;;;;;;;0.75;0.73;;;22.40;50.30;;;;;;5090349;28;20179;-77
2021/08/03 08:38:51;;;;;;;0.77;0.70;;;22.40;50.00;;;;;;5005317;28;20194;-77
2021/08/03 08:41:23;;;;;;;0.77;0.77;;;22.50;49.90;;;;;;5074565;28;20187;-77
2021/08/03 08:43:51;;;;;;;0.80;0.80;;;22.60;49.80;;;;;;4989456;28;20195;-78
2021/08/03 08:46:19;;;;;;;0.65;0.65;;;22.60;50.00;;;;;;5057286;28;20175;-77
2021/08/03 08:48:46;;;;;;;0.70;0.70;;;22.50;49.60;;;;;;5072911;28;20183;-78
2021/08/03 08:51:17;;;;;;;0.70;0.70;;;22.50;49.40;;;;;;5073543;28;20186;-78
2021/08/03 08:53:48;;;;;;;0.60;0.60;;;22.50;49.40;;;;;;5090423;28;20181;-77
2021/08/03 08:56:16;;;;;;;0.70;0.70;;;22.50;49.20;;;;;;5004978;28;20175;-77
2021/08/03 08:58:47;;;;;;;0.60;0.60;;;22.50;49.40;;;;;;5073242;28;20210;-76
2021/08/03 09:01:14;;;;;;;0.82;0.82;;;22.50;49.00;;;;;;5056671;28;20187;-77
2021/08/03 09:03:45;;;;;;;0.65;0.65;;;22.60;49.50;;;;;;5091045;28;20258;-77
2021/08/03 09:06:21;;;;;;;0.60;0.60;;;22.60;49.70;;;;;;5073366;28;20183;-77
2021/08/03 09:08:49;;;;;;;0.80;0.80;;;22.60;49.40;;;;;;5057826;28;20227;-77
2021/08/03 09:11:16;;;;;;;0.68;0.60;;;22.50;50.00;;;;;;5021770;28;20216;-77
2021/08/03 09:13:58;;;;;;;0.80;0.80;;;22.50;49.80;;;;;;5024838;28;20164;-76
2021/08/03 09:16:45;;;;;;;1.00;0.90;;;22.50;50.10;;;;;;5008277;28;20209;-77
2021/08/03 09:19:26;;;;;;;0.60;0.60;;;22.50;49.80;;;;;;5007869;28;20226;-77
2021/08/03 09:22:28;;;;;;;0.88;0.80;;;22.40;50.00;;;;;;5026224;28;20190;-79
2021/08/03 09:25:14;;;;;;;0.57;0.57;;;22.50;49.90;;;;;;4978712;28;20187;-83
2021/08/03 09:27:48;;;;;;;1.23;0.80;;;22.50;49.20;;;;;;4983352;28;20646;-79
2021/08/03 09:30:33;;;;;;;1.00;0.90;;;22.60;49.70;;;;;;5002440;28;20194;-83
2021/08/03 09:33:01;;;;;;;0.80;0.70;;;22.50;48.20;;;;;;4998975;28;20160;-82
2021/08/03 09:35:28;;;;;;;0.63;0.63;;;22.60;48.30;;;;;;4998700;28;20222;-81
2021/08/03 09:37:56;;;;;;;0.60;0.60;;;22.60;48.70;;;;;;4979630;28;20191;-84
2021/08/03 09:40:26;;;;;;;0.60;0.60;;;22.50;48.70;;;;;;4981904;28;20215;-79
2021/08/03 09:43:09;;;;;;;0.70;0.63;;;22.60;48.60;;;;;;5001354;28;20187;-82
2021/08/03 09:45:56;;;;;;;0.93;0.90;;;22.60;48.60;;;;;;5019374;28;20156;-81
2021/08/03 09:48:24;;;;;;;0.70;0.70;;;22.60;48.20;;;;;;5003962;28;20258;-84
2021/08/03 09:50:54;;;;;;;0.63;0.63;;;22.60;48.20;;;;;;5004724;28;20184;-77
2021/08/03 09:53:37;;;;;;;0.82;0.70;;;22.50;48.10;;;;;;5023402;28;20191;-76
2021/08/03 09:56:06;;;;;;;0.70;0.70;;;22.40;47.70;;;;;;5023521;28;20163;-79
2021/08/03 09:58:47;;;;;;;1.83;0.60;;;22.30;47.30;;;;;;5004553;28;20582;-77
2021/08/03 10:01:31;;;;;;;0.70;0.70;;;22.30;47.10;;;;;;5004012;28;20646;-77
2021/08/03 10:04:00;;;;;;;0.60;0.60;;;22.20;47.00;;;;;;5021510;28;20198;-79
2021/08/03 10:06:31;;;;;;;0.50;0.50;;;22.20;46.70;;;;;;5022232;28;20179;-80
2021/08/03 10:09:01;;;;;;;0.60;0.60;;;22.20;46.40;;;;;;5044690;28;20235;-77
2021/08/03 10:11:32;;;;;;;0.75;0.73;;;22.30;45.80;;;;;;5057208;28;20191;-77
2021/08/03 10:14:02;;;;;;;0.70;0.70;;;22.40;46.60;;;;;;5057498;28;20187;-77
2021/08/03 10:16:29;;;;;;;0.70;0.70;;;22.40;46.90;;;;;;5074589;28;20179;-80
2021/08/03 10:19:01;;;;;;;0.70;0.70;;;22.40;46.70;;;;;;5057655;28;20205;-79
2021/08/03 10:21:38;;;;;;;0.82;0.70;;;22.40;47.20;;;;;;5057275;28;20187;-77
2021/08/03 10:24:21;;;;;;;1.27;0.70;;;22.40;47.70;;;;;;5022330;28;20188;-77
2021/08/03 10:27:02;;;;;;;1.52;0.80;;;22.50;47.30;;;;;;5006147;28;20156;-80
2021/08/03 10:29:36;;;;;;;0.90;0.70;;;22.60;46.60;;;;;;5022032;28;20289;-79
2021/08/03 10:32:03;;;;;;;1.48;1.05;;;22.60;47.00;;;;;;5072434;28;20183;-77
2021/08/03 10:34:58;;;;;;;2.50;0.90;;;22.60;47.50;;;;;;5022184;28;20156;-77
2021/08/03 10:38:04;;;;;;;1.10;0.63;;;22.60;47.40;;;;;;5022042;28;20171;-77
2021/08/03 10:40:57;;;;;;;0.60;0.60;;;22.50;47.20;;;;;;5023302;28;20246;-77
2021/08/03 10:43:38;;;;;;;0.70;0.70;;;22.50;47.20;;;;;;5023405;28;20607;-77
2021/08/03 10:46:30;;;;;;;2.47;0.70;;;22.60;47.10;;;;;;5007853;28;20191;-77
2021/08/03 10:48:58;;;;;;;4.63;0.88;;;22.60;46.30;;;;;;5023243;28;20170;-82
2021/08/03 10:51:43;;;;;;;0.98;0.70;;;22.60;46.60;;;;;;5074684;28;20190;-80
2021/08/03 10:54:16;;;;;;;1.08;0.75;;;22.50;46.50;;;;;;5023038;28;20166;-77
2021/08/03 10:57:11;;;;;;;1.63;0.77;;;22.40;46.80;;;;;;5006023;28;20187;-76
2021/08/03 10:59:38;;;;;;;0.85;0.70;;;22.40;46.10;;;;;;5078083;28;20217;-81
2021/08/03 11:02:19;;;;;;;2.47;0.75;;;22.30;46.00;;;;;;5022825;28;20159;-77
2021/08/03 11:05:00;;;;;;;1.88;0.60;;;22.30;45.20;;;;;;5060951;28;20187;-77
2021/08/03 11:07:30;;;;;;;4.45;0.88;;;22.20;45.40;;;;;;5055039;28;20183;-78
2021/08/03 11:10:02;;;;;;;1.45;0.70;;;22.20;44.50;;;;;;5041638;28;20178;-77
2021/08/03 11:12:46;;;;;;;0.88;0.70;;;22.20;44.50;;;;;;5094754;28;20187;-79
2021/08/03 11:15:33;;;;;;;0.80;0.57;;;22.10;44.60;;;;;;5060662;28;20231;-77
2021/08/03 11:18:08;;;;;;;0.77;0.60;;;22.10;44.40;;;;;;5026198;28;20625;-77
2021/08/03 11:20:58;;;;;;;1.92;0.60;;;22.10;44.20;;;;;;4994047;28;20220;-77
2021/08/03 11:23:25;;;;;;;1.58;0.90;;;22.10;44.00;;;;;;5029682;28;20171;-77
2021/08/03 11:25:51;;;;;;;0.80;0.70;;;22.10;43.90;;;;;;5042522;28;20159;-77
2021/08/03 11:28:25;;;;;;;1.52;0.60;;;22.10;43.80;;;;;;5044216;28;20191;-77
2021/08/03 11:30:52;;;;;;;3.08;0.70;;;22.00;43.70;;;;;;5094264;28;20566;-77
2021/08/03 11:33:19;;;;;;;2.28;0.63;;;22.10;43.70;;;;;;5043388;28;20175;-77
2021/08/03 11:35:50;;;;;;;0.60;0.60;;;22.00;43.40;;;;;;5041664;28;20614;-79
2021/08/03 11:38:19;;;;;;;0.73;0.73;;;22.10;43.10;;;;;;5078387;28;20520;-77
2021/08/03 11:40:50;;;;;;;2.45;0.70;;;22.10;43.00;;;;;;5043286;28;20274;-77
2021/08/03 11:43:26;;;;;;;0.47;0.47;;;22.10;42.90;;;;;;5077194;28;20183;-77
2021/08/03 11:45:56;;;;;;;0.60;0.60;;;22.20;42.80;;;;;;5041935;28;20166;-77
2021/08/03 11:48:30;;;;;;;0.52;0.52;;;22.10;42.60;;;;;;5060792;28;20206;-78
2021/08/03 11:51:13;;;;;;;0.60;0.60;;;22.10;42.60;;;;;;5093199;28;20179;-78
2021/08/03 11:53:40;;;;;;;0.73;0.60;;;22.20;42.70;;;;;;5090320;28;20190;-77
2021/08/03 11:56:09;;;;;;;0.65;0.60;;;22.20;42.50;;;;;;5024492;28;20162;-78
2021/08/03 11:58:40;;;;;;;1.60;0.70;;;22.20;42.30;;;;;;5093295;28;20193;-77
2021/08/03 12:01:12;;;;;;;0.70;0.70;;;22.20;42.20;;;;;;5008760;28;20233;-77
2021/08/03 12:03:41;;;;;;;1.60;0.65;;;22.10;42.10;;;;;;5076543;28;20285;-79
2021/08/03 12:06:10;;;;;;;1.63;0.77;;;22.20;42.10;;;;;;5060425;28;20183;-77
2021/08/03 12:08:37;;;;;;;1.33;0.70;;;22.20;42.30;;;;;;5050018;28;20230;-78
2021/08/03 12:11:06;;;;;;;0.82;0.82;;;22.20;42.50;;;;;;5021717;28;20193;-80
2021/08/03 12:13:36;;;;;;;0.60;0.60;;;22.20;42.80;;;;;;5057119;28;20244;-77
2021/08/03 12:16:05;;;;;;;0.80;0.80;;;22.20;42.80;;;;;;5056881;28;20646;-77
2021/08/03 12:18:39;;;;;;;2.95;0.80;;;22.20;43.00;;;;;;5073936;28;20203;-77
2021/08/03 12:21:05;;;;;;;0.70;0.70;;;22.30;43.10;;;;;;5056158;28;20227;-78
2021/08/03 12:23:33;;;;;;;0.95;0.70;;;22.30;43.00;;;;;;5022708;28;20163;-78
2021/08/03 12:26:06;;;;;;;0.90;0.77;;;22.30;43.20;;;;;;5006160;28;20160;-77
2021/08/03 12:28:53;;;;;;;0.70;0.70;;;22.30;43.30;;;;;;4989444;28;20206;-77
2021/08/03 12:31:25;;;;;;;0.73;0.73;;;22.30;43.00;;;;;;4991173;28;20177;-77
2021/08/03 12:33:55;;;;;;;1.48;0.75;;;22.40;42.90;;;;;;4990018;28;20239;-78
2021/08/03 12:36:24;;;;;;;1.60;0.73;;;22.40;42.90;;;;;;4989059;28;20214;-77
2021/08/03 12:39:20;;;;;;;1.30;1.00;;;22.40;43.10;;;;;;5055925;28;20183;-77
2021/08/03 12:44:59;;;;;;;0.80;0.80;;;22.30;43.20;;;;;;5020997;28;20546;-78
2021/08/03 12:47:27;;;;;;;0.88;0.63;;;22.40;43.00;;;;;;5072856;28;20179;-79
2021/08/03 12:50:07;;;;;;;3.65;1.10;;;22.40;43.10;;;;;;5004757;28;20159;-77
2021/08/03 12:52:54;;;;;;;0.80;0.80;;;22.40;43.20;;;;;;5072639;28;20179;-77
2021/08/03 12:58:33;;;;;;;1.27;0.90;;;22.40;43.10;;;;;;5064575;28;20531;-77
2021/08/03 13:01:17;;;;;;;1.15;0.80;;;22.50;42.80;;;;;;5022742;28;20215;-78
2021/08/03 13:03:50;;;;;;;1.95;0.80;;;22.50;42.60;;;;;;5070618;28;20183;-79
2021/08/03 13:06:20;;;;;;;0.80;0.80;;;22.50;43.00;;;;;;5056139;28;20258;-77
2021/08/03 13:08:47;;;;;;;0.93;0.82;;;22.50;42.80;;;;;;5072117;28;20227;-78
2021/08/03 13:11:16;;;;;;;2.25;0.70;;;22.50;42.90;;;;;;5022286;28;20180;-77
2021/08/03 13:13:42;;;;;;;0.70;0.70;;;22.40;42.70;;;;;;5013853;28;20513;-81